createdAt,value
2023-02-06T00:01:37.853Z,1.86
2023-02-06T00:04:05.072Z,1.70
2023-02-06T00:06:32.537Z,1.74
2023-02-06T00:08:59.298Z,1.56
2023-02-06T00:11:26.168Z,1.75
2023-02-06T00:13:53.575Z,1.88
2023-02-06T00:16:27.501Z,1.90
2023-02-06T00:18:56.504Z,1.87
2023-02-06T00:21:26.198Z,1.77
2023-02-06T00:23:55.240Z,1.82
2023-02-06T00:26:22.808Z,1.73
2023-02-06T00:28:49.636Z,1.67
2023-02-06T00:31:17.596Z,1.68
2023-02-06T00:33:44.435Z,1.79
2023-02-06T00:36:11.451Z,1.77
2023-02-06T00:38:38.573Z,1.77
2023-02-06T00:41:05.703Z,1.81
2023-02-06T00:43:32.729Z,1.77
2023-02-06T00:45:59.553Z,1.71
2023-02-06T00:48:26.332Z,1.58
2023-02-06T00:50:54.139Z,1.75
2023-02-06T00:53:21.704Z,1.74
2023-02-06T00:55:48.441Z,1.73
2023-02-06T00:58:15.261Z,1.46
2023-02-06T01:00:42.052Z,1.70
2023-02-06T01:03:08.874Z,1.64
2023-02-06T01:05:36.675Z,1.70
2023-02-06T01:08:04.603Z,1.77
2023-02-06T01:10:32.746Z,1.76
2023-02-06T01:12:59.536Z,1.65
2023-02-06T01:15:26.290Z,1.62
2023-02-06T01:17:53.097Z,1.75
2023-02-06T01:20:21.610Z,1.68
2023-02-06T01:22:48.553Z,1.54
2023-02-06T01:25:15.534Z,1.75
2023-02-06T01:27:42.360Z,1.66
2023-02-06T01:30:10.348Z,1.53
2023-02-06T01:32:39.671Z,1.51
2023-02-06T01:35:09.109Z,1.65
2023-02-06T01:37:36.872Z,1.54
2023-02-06T01:40:06.689Z,1.61
2023-02-06T01:42:38.457Z,1.62
2023-02-06T01:45:26.591Z,1.72
2023-02-06T01:48:06.470Z,1.69
2023-02-06T01:50:36.340Z,1.62
2023-02-06T01:53:05.270Z,1.68
2023-02-06T01:55:32.867Z,1.61
2023-02-06T01:58:01.287Z,1.66
2023-02-06T02:00:28.189Z,1.51
2023-02-06T02:02:55.105Z,1.52
2023-02-06T02:05:22.170Z,1.49
2023-02-06T02:08:01.226Z,1.64
2023-02-06T02:10:32.361Z,1.66
2023-02-06T02:12:59.171Z,1.55
2023-02-06T02:16:17.409Z,1.68
2023-02-06T02:19:21.215Z,1.74
2023-02-06T02:22:06.725Z,1.75
2023-02-06T02:25:17.739Z,1.74
2023-02-06T02:28:24.361Z,1.76
2023-02-06T02:31:33.335Z,1.76
2023-02-06T02:34:40.142Z,1.69
2023-02-06T02:37:34.156Z,1.77
2023-02-06T02:40:39.950Z,1.77
2023-02-06T02:43:18.602Z,1.74
2023-02-06T02:46:48.473Z,1.71
2023-02-06T02:49:24.121Z,1.68
2023-02-06T02:51:51.979Z,1.71
2023-02-06T02:54:19.009Z,1.59
2023-02-06T02:56:45.802Z,1.72
2023-02-06T02:59:29.135Z,1.75
2023-02-06T03:02:00.051Z,1.56
2023-02-06T03:05:02.240Z,1.70
2023-02-06T03:07:47.304Z,1.68
2023-02-06T03:10:39.392Z,1.56
2023-02-06T03:13:35.051Z,1.69
2023-02-06T03:16:20.728Z,1.72
2023-02-06T03:19:06.297Z,1.74
2023-02-06T03:21:36.368Z,1.53
2023-02-06T03:24:10.764Z,1.54
2023-02-06T03:26:38.500Z,1.57
2023-02-06T03:29:10.009Z,1.56
2023-02-06T03:31:56.999Z,1.61
2023-02-06T03:34:28.556Z,1.64
2023-02-06T03:36:55.456Z,1.49
2023-02-06T03:39:23.196Z,1.57
2023-02-06T03:41:51.563Z,1.64
2023-02-06T03:44:25.073Z,1.59
2023-02-06T03:46:55.325Z,1.48
2023-02-06T03:49:25.204Z,1.59
2023-02-06T03:51:58.446Z,1.59
2023-02-06T03:54:26.679Z,1.47
2023-02-06T03:56:59.742Z,1.56
2023-02-06T03:59:26.680Z,1.56
2023-02-06T04:01:58.065Z,1.55
2023-02-06T04:04:32.941Z,1.56
2023-02-06T04:07:05.699Z,1.48
2023-02-06T04:09:32.328Z,1.46
2023-02-06T04:11:59.044Z,1.62
2023-02-06T04:14:25.925Z,1.57
2023-02-06T04:16:52.663Z,1.68
2023-02-06T04:19:19.457Z,1.59
2023-02-06T04:21:46.196Z,1.74
2023-02-06T04:24:12.919Z,1.62
2023-02-06T04:26:39.663Z,1.49
2023-02-06T04:29:06.509Z,1.56
2023-02-06T04:31:33.385Z,1.59
2023-02-06T04:34:00.148Z,1.49
2023-02-06T04:36:26.960Z,1.59
2023-02-06T04:38:53.706Z,1.56
2023-02-06T04:41:20.484Z,1.47
2023-02-06T04:43:47.225Z,1.51
2023-02-06T04:46:13.959Z,1.43
2023-02-06T04:48:40.781Z,1.31
2023-02-06T04:51:07.501Z,1.63
2023-02-06T04:53:34.377Z,1.73
2023-02-06T04:56:07.208Z,1.63
2023-02-06T04:59:08.863Z,1.66
2023-02-06T05:01:35.886Z,1.51
2023-02-06T05:04:02.721Z,1.46
2023-02-06T05:06:31.243Z,1.49
2023-02-06T05:08:59.899Z,1.64
2023-02-06T05:11:27.143Z,1.59
2023-02-06T05:13:54.018Z,1.54
2023-02-06T05:16:20.925Z,1.64
2023-02-06T05:18:47.704Z,1.60
2023-02-06T05:21:16.363Z,1.44
2023-02-06T05:23:43.129Z,1.48
2023-02-06T05:26:09.933Z,1.45
2023-02-06T05:28:36.742Z,1.45
2023-02-06T05:31:04.819Z,1.42
2023-02-06T05:33:31.788Z,1.11
2023-02-06T05:36:06.674Z,1.50
2023-02-06T05:38:34.549Z,1.33
2023-02-06T05:41:01.368Z,1.39
2023-02-06T05:43:28.133Z,1.64
2023-02-06T05:45:55.125Z,1.29
2023-02-06T05:48:22.002Z,1.52
2023-02-06T05:50:49.870Z,1.65
2023-02-06T05:53:17.782Z,1.68
2023-02-06T05:55:44.589Z,1.67
2023-02-06T05:58:12.397Z,1.59
2023-02-06T06:00:39.321Z,1.47
2023-02-06T06:03:06.126Z,1.50
2023-02-06T06:05:33.671Z,1.69
2023-02-06T06:08:00.717Z,1.65
2023-02-06T06:10:27.692Z,1.54
2023-02-06T06:12:54.480Z,1.55
2023-02-06T06:15:21.245Z,1.48
2023-02-06T06:17:47.981Z,1.62
2023-02-06T06:20:14.781Z,1.47
2023-02-06T06:22:41.620Z,1.47
2023-02-06T06:25:08.642Z,1.39
2023-02-06T06:27:35.402Z,1.54
2023-02-06T06:30:02.187Z,1.34
2023-02-06T06:32:28.969Z,1.43
2023-02-06T06:34:55.719Z,1.06
2023-02-06T06:37:22.553Z,1.41
2023-02-06T06:39:49.317Z,1.33
2023-02-06T06:42:16.057Z,1.42
2023-02-06T06:44:42.781Z,1.49
2023-02-06T06:47:10.916Z,1.41
2023-02-06T06:49:37.692Z,1.29
2023-02-06T06:52:08.865Z,1.39
2023-02-06T06:54:40.270Z,1.38
2023-02-06T06:57:07.125Z,1.30
2023-02-06T06:59:34.022Z,1.29
2023-02-06T07:02:00.894Z,1.26
2023-02-06T07:04:31.525Z,1.20
2023-02-06T07:06:58.344Z,1.25
2023-02-06T07:09:25.408Z,1.23
2023-02-06T07:11:52.190Z,1.13
2023-02-06T07:14:18.990Z,1.11
2023-02-06T07:16:45.822Z,1.09
2023-02-06T07:19:12.745Z,1.07
2023-02-06T07:21:39.574Z,1.12
2023-02-06T07:24:06.810Z,0.98
2023-02-06T07:26:33.583Z,1.06
2023-02-06T07:29:00.534Z,1.04
2023-02-06T07:31:27.291Z,0.89
2023-02-06T07:33:54.040Z,1.05
2023-02-06T07:36:20.832Z,0.89
2023-02-06T07:38:47.630Z,0.81
2023-02-06T07:41:14.593Z,1.06
2023-02-06T07:43:41.392Z,0.99
2023-02-06T07:46:08.216Z,1.19
2023-02-06T07:48:35.013Z,1.06
2023-02-06T07:51:08.744Z,1.27
2023-02-06T07:53:36.848Z,1.25
2023-02-06T07:56:14.685Z,1.14
2023-02-06T07:58:41.553Z,1.22
2023-02-06T08:01:08.932Z,1.09
2023-02-06T08:03:36.210Z,1.26
2023-02-06T08:06:09.812Z,1.18
2023-02-06T08:08:36.574Z,1.17
2023-02-06T08:11:12.700Z,1.27
2023-02-06T08:13:39.837Z,1.29
2023-02-06T08:16:10.954Z,1.28
2023-02-06T08:18:38.253Z,1.37
2023-02-06T08:21:26.657Z,1.45
2023-02-06T08:23:59.920Z,1.12
2023-02-06T08:26:29.826Z,1.52
2023-02-06T08:28:58.773Z,1.32
2023-02-06T08:31:31.163Z,1.37
2023-02-06T08:33:58.041Z,1.33
2023-02-06T08:36:26.127Z,1.32
2023-02-06T08:38:53.349Z,1.25
2023-02-06T08:41:24.928Z,1.41
2023-02-06T08:43:55.670Z,1.33
2023-02-06T08:46:25.336Z,1.49
2023-02-06T08:49:08.961Z,1.53
2023-02-06T08:51:36.897Z,1.67
2023-02-06T08:54:07.754Z,1.72
2023-02-06T08:56:36.435Z,1.71
2023-02-06T08:59:04.985Z,1.65
2023-02-06T09:01:34.590Z,1.52
2023-02-06T09:04:06.527Z,2.08
2023-02-06T09:06:36.610Z,2.21
2023-02-06T09:09:05.369Z,2.26
2023-02-06T09:11:32.331Z,2.64
2023-02-06T09:14:02.304Z,2.57
2023-02-06T09:16:32.538Z,2.55
2023-02-06T09:19:01.557Z,2.64
2023-02-06T09:21:31.557Z,2.77
2023-02-06T09:24:02.083Z,2.75
2023-02-06T09:26:50.283Z,2.36
2023-02-06T09:29:24.272Z,2.43
2023-02-06T09:31:51.095Z,1.96
2023-02-06T09:34:17.881Z,2.03
2023-02-06T09:36:44.953Z,2.11
2023-02-06T09:39:11.808Z,2.20
2023-02-06T09:41:55.504Z,2.06
2023-02-06T09:44:37.040Z,2.06
2023-02-06T09:47:28.901Z,2.16
2023-02-06T09:50:07.605Z,2.23
2023-02-06T09:52:58.439Z,2.25
2023-02-06T09:56:15.397Z,2.22
2023-02-06T09:58:51.637Z,2.23
2023-02-06T10:01:41.674Z,2.23
2023-02-06T10:04:40.705Z,2.33
2023-02-06T10:07:19.318Z,2.29
2023-02-06T10:09:56.179Z,2.14
2023-02-06T10:12:31.513Z,2.14
2023-02-06T10:15:16.940Z,1.83
2023-02-06T10:18:11.674Z,1.89
2023-02-06T10:20:51.608Z,1.87
2023-02-06T10:23:39.726Z,1.91
2023-02-06T10:26:23.515Z,1.95
2023-02-06T10:28:57.180Z,1.98
2023-02-06T10:31:53.172Z,2.08
2023-02-06T10:34:47.799Z,2.12
2023-02-06T10:38:08.134Z,2.01
2023-02-06T10:40:34.871Z,2.09
2023-02-06T10:43:28.476Z,2.14
2023-02-06T10:46:19.959Z,1.96
2023-02-06T10:49:24.110Z,2.01
2023-02-06T10:51:56.274Z,1.96
2023-02-06T10:54:49.510Z,1.58
2023-02-06T10:57:25.103Z,1.84
2023-02-06T10:59:56.106Z,1.98
2023-02-06T11:02:39.422Z,1.79
2023-02-06T11:05:23.222Z,1.90
2023-02-06T11:08:08.085Z,1.95
2023-02-06T11:10:35.202Z,2.08
2023-02-06T11:13:14.112Z,2.09
2023-02-06T11:16:03.049Z,2.25
2023-02-06T11:18:40.670Z,2.27
2023-02-06T11:21:09.924Z,2.23
2023-02-06T11:23:36.843Z,2.23
2023-02-06T11:26:15.608Z,2.06
2023-02-06T11:28:56.106Z,1.88
2023-02-06T11:31:45.615Z,2.02
2023-02-06T11:34:33.471Z,1.90
2023-02-06T11:37:06.816Z,1.86
2023-02-06T11:39:38.395Z,1.90
2023-02-06T11:42:15.405Z,1.85
2023-02-06T11:44:45.498Z,1.66
2023-02-06T11:47:37.435Z,1.71
2023-02-06T11:50:13.426Z,1.91
2023-02-06T11:52:46.574Z,2.11
2023-02-06T11:55:36.794Z,2.16
2023-02-06T11:58:09.728Z,2.24
2023-02-06T12:00:38.147Z,2.23
2023-02-06T12:03:05.802Z,2.30
2023-02-06T12:05:42.674Z,2.40
2023-02-06T12:08:17.339Z,2.36
2023-02-06T12:10:58.722Z,2.00
2023-02-06T12:13:34.119Z,2.13
2023-02-06T12:16:04.522Z,2.23
2023-02-06T12:18:40.593Z,2.25
2023-02-06T12:21:20.261Z,2.33
2023-02-06T12:23:55.659Z,2.33
2023-02-06T12:26:27.817Z,2.07
2023-02-06T12:29:15.281Z,2.17
2023-02-06T12:32:18.495Z,2.07
2023-02-06T12:35:00.548Z,2.13
2023-02-06T12:37:41.591Z,2.11
2023-02-06T12:40:47.281Z,2.01
2023-02-06T12:43:16.725Z,2.10
2023-02-06T12:46:01.792Z,2.11
2023-02-06T12:49:13.193Z,1.98
2023-02-06T12:51:53.768Z,2.16
2023-02-06T12:54:34.138Z,2.21
2023-02-06T12:57:15.811Z,2.15
2023-02-06T13:00:20.925Z,1.89
2023-02-06T13:03:35.362Z,1.98
2023-02-06T13:06:25.946Z,1.76
2023-02-06T13:09:00.853Z,1.69
2023-02-06T13:11:39.205Z,1.88
2023-02-06T13:14:18.416Z,1.85
2023-02-06T13:16:59.746Z,1.78
2023-02-06T13:19:37.436Z,1.78
2023-02-06T13:22:10.468Z,1.74
2023-02-06T13:24:42.607Z,1.65
2023-02-06T13:27:09.269Z,1.52
2023-02-06T13:29:48.938Z,1.43
2023-02-06T13:32:15.637Z,1.54
2023-02-06T13:34:45.106Z,1.54
2023-02-06T13:37:39.077Z,1.54
2023-02-06T13:40:24.052Z,1.59
2023-02-06T13:43:19.581Z,1.26
2023-02-06T13:45:58.697Z,1.51
2023-02-06T13:48:56.813Z,1.45
2023-02-06T13:51:29.296Z,1.22
2023-02-06T13:54:44.514Z,0.84
2023-02-06T13:57:39.762Z,0.70
2023-02-06T14:00:21.224Z,0.71
2023-02-06T14:02:56.454Z,0.82
2023-02-06T14:05:34.544Z,0.93
2023-02-06T14:08:34.451Z,0.99
2023-02-06T14:11:19.122Z,0.84
2023-02-06T14:13:55.840Z,0.94
2023-02-06T14:16:41.930Z,0.83
2023-02-06T14:19:30.808Z,0.97
2023-02-06T14:22:17.065Z,0.89
2023-02-06T14:25:12.570Z,0.95
2023-02-06T14:27:51.977Z,1.07
2023-02-06T14:30:31.591Z,1.02
2023-02-06T14:33:26.171Z,0.94
2023-02-06T14:36:23.229Z,0.84
2023-02-06T14:39:27.052Z,0.76
2023-02-06T14:41:54.167Z,0.70
2023-02-06T14:44:29.798Z,0.64
2023-02-06T14:46:57.476Z,0.68
2023-02-06T14:49:33.997Z,0.67
2023-02-06T14:52:05.020Z,0.74
2023-02-06T14:54:38.804Z,0.62
2023-02-06T14:57:16.585Z,0.65
2023-02-06T14:59:59.379Z,0.58
2023-02-06T15:02:37.448Z,0.61
2023-02-06T15:05:06.506Z,0.48
2023-02-06T15:07:38.861Z,0.47
2023-02-06T15:10:15.013Z,0.45
2023-02-06T15:12:42.447Z,0.46
2023-02-06T15:15:19.764Z,0.45
2023-02-06T15:18:07.746Z,0.28
2023-02-06T15:20:40.414Z,0.32
2023-02-06T15:23:27.037Z,0.23
2023-02-06T15:26:12.784Z,0.31
2023-02-06T15:28:41.293Z,0.30
2023-02-06T15:31:19.153Z,0.08
2023-02-06T15:33:53.281Z,0.15
2023-02-06T15:36:28.629Z,0.05
2023-02-06T15:38:55.872Z,0.18
2023-02-06T15:41:23.076Z,-0.04
2023-02-06T15:43:53.400Z,-0.08
2023-02-06T15:46:20.545Z,0.05
2023-02-06T15:48:47.188Z,0.15
2023-02-06T15:51:20.409Z,0.14
2023-02-06T15:53:48.711Z,0.03
2023-02-06T15:56:30.944Z,-0.05
2023-02-06T15:59:04.573Z,-0.01
2023-02-06T16:01:37.171Z,-0.03
2023-02-06T16:04:12.349Z,0.00
2023-02-06T16:06:39.265Z,0.07
2023-02-06T16:09:08.775Z,0.12
2023-02-06T16:11:51.052Z,0.02
2023-02-06T16:14:34.824Z,-0.16
2023-02-06T16:17:22.469Z,-0.04
2023-02-06T16:19:57.010Z,0.05
2023-02-06T16:22:37.383Z,-0.06
2023-02-06T16:25:31.574Z,0.11
2023-02-06T16:27:59.956Z,-0.17
2023-02-06T16:30:34.692Z,-0.13
2023-02-06T16:33:32.915Z,-0.08
2023-02-06T16:35:59.964Z,-0.07
2023-02-06T16:38:26.801Z,0.05
2023-02-06T16:40:54.028Z,0.12
2023-02-06T16:43:20.806Z,0.08
2023-02-06T16:45:49.202Z,-0.02
2023-02-06T16:48:18.885Z,-0.46
2023-02-06T16:50:47.859Z,0.09
2023-02-06T16:53:23.542Z,0.08
2023-02-06T16:55:50.944Z,-0.24
2023-02-06T16:58:24.637Z,0.07
2023-02-06T17:00:51.517Z,0.11
2023-02-06T17:03:18.424Z,0.08
2023-02-06T17:05:47.888Z,-0.05
2023-02-06T17:08:23.264Z,0.00
2023-02-06T17:10:50.448Z,0.10
2023-02-06T17:13:23.662Z,-0.01
2023-02-06T17:15:54.399Z,-0.05
2023-02-06T17:18:23.123Z,-0.23
2023-02-06T17:20:52.938Z,-0.03
2023-02-06T17:23:20.225Z,-0.07
2023-02-06T17:25:47.151Z,-0.05
2023-02-06T17:28:18.650Z,-0.05
2023-02-06T17:30:46.421Z,-0.18
2023-02-06T17:33:13.210Z,-0.12
2023-02-06T17:35:40.032Z,-0.05
2023-02-06T17:38:09.310Z,0.01
2023-02-06T17:40:38.215Z,0.04
2023-02-06T17:43:07.123Z,0.07
2023-02-06T17:45:35.737Z,0.06
2023-02-06T17:48:02.713Z,-0.05
2023-02-06T17:50:30.105Z,-0.01
2023-02-06T17:52:58.969Z,0.10
2023-02-06T17:55:27.814Z,-0.05
2023-02-06T17:57:55.058Z,-0.07
2023-02-06T18:00:23.851Z,0.00
2023-02-06T18:02:55.258Z,0.00
2023-02-06T18:05:23.168Z,0.00
2023-02-06T18:07:51.734Z,-0.12
2023-02-06T18:10:21.064Z,-0.03
2023-02-06T18:12:47.940Z,-0.06
2023-02-06T18:15:15.546Z,0.00
2023-02-06T18:17:43.304Z,-0.04
2023-02-06T18:20:11.803Z,0.00
2023-02-06T18:22:41.684Z,-0.01
2023-02-06T18:25:11.537Z,-0.09
2023-02-06T18:27:40.129Z,0.01
2023-02-06T18:30:08.307Z,0.00
2023-02-06T18:32:38.213Z,-0.15
2023-02-06T18:35:07.286Z,-0.22
2023-02-06T18:37:35.114Z,-0.19
2023-02-06T18:40:01.979Z,-0.20
2023-02-06T18:42:47.452Z,-0.04
2023-02-06T18:45:14.336Z,-0.12
2023-02-06T18:47:42.448Z,-0.19
2023-02-06T18:50:11.889Z,-0.14
2023-02-06T18:52:39.516Z,-0.42
2023-02-06T18:55:08.369Z,-0.26
2023-02-06T18:57:35.989Z,-0.31
2023-02-06T19:00:06.992Z,-0.30
2023-02-06T19:02:33.781Z,-0.08
2023-02-06T19:05:00.765Z,-0.24
2023-02-06T19:07:27.810Z,-0.38
2023-02-06T19:10:04.267Z,-0.24
2023-02-06T19:12:31.319Z,-0.21
2023-02-06T19:14:59.114Z,-0.26
2023-02-06T19:17:27.902Z,-0.24
2023-02-06T19:19:54.933Z,-0.18
2023-02-06T19:22:21.776Z,-0.22
2023-02-06T19:24:53.314Z,-0.24
2023-02-06T19:27:21.507Z,-0.18
2023-02-06T19:29:48.635Z,-0.19
2023-02-06T19:32:15.401Z,-0.14
2023-02-06T19:34:44.149Z,-0.28
2023-02-06T19:37:12.401Z,-0.18
2023-02-06T19:39:40.451Z,-0.23
2023-02-06T19:42:10.121Z,-0.36
2023-02-06T19:44:37.668Z,-0.36
2023-02-06T19:47:04.908Z,-0.42
2023-02-06T19:49:31.941Z,-0.47
2023-02-06T19:51:58.892Z,-0.45
2023-02-06T19:54:26.177Z,-0.47
2023-02-06T19:56:53.222Z,-0.46
2023-02-06T19:59:29.143Z,-0.32
2023-02-06T20:02:01.729Z,-0.31
2023-02-06T20:04:35.559Z,-0.26
2023-02-06T20:07:03.051Z,-0.27
2023-02-06T20:09:30.768Z,-0.22
2023-02-06T20:11:58.011Z,-0.18
2023-02-06T20:14:26.712Z,-0.29
2023-02-06T20:16:53.666Z,-0.26
2023-02-06T20:19:27.030Z,-0.21
2023-02-06T20:21:59.607Z,-0.28
2023-02-06T20:24:31.823Z,-0.24
2023-02-06T20:27:03.425Z,-0.22
2023-02-06T20:29:37.799Z,-0.32
2023-02-06T20:32:06.568Z,-0.46
2023-02-06T20:34:34.565Z,-0.42
2023-02-06T20:37:01.443Z,-0.43
2023-02-06T20:39:31.277Z,-0.41
2023-02-06T20:41:58.471Z,-0.32
2023-02-06T20:44:25.234Z,-0.58
2023-02-06T20:46:52.279Z,-0.34
2023-02-06T20:49:26.199Z,-0.36
2023-02-06T20:51:53.539Z,-0.31
2023-02-06T20:54:21.793Z,-0.26
2023-02-06T20:56:49.457Z,-0.29
2023-02-06T20:59:19.347Z,-0.90
2023-02-06T21:01:46.572Z,-0.73
2023-02-06T21:04:16.239Z,-0.59
2023-02-06T21:06:44.103Z,-0.76
2023-02-06T21:09:12.288Z,-0.61
2023-02-06T21:11:48.122Z,-0.66
2023-02-06T21:14:16.008Z,-0.64
2023-02-06T21:16:44.082Z,-0.57
2023-02-06T21:19:14.429Z,-0.73
2023-02-06T21:21:43.703Z,-0.80
2023-02-06T21:24:13.348Z,-0.80
2023-02-06T21:26:40.221Z,-1.00
2023-02-06T21:29:07.903Z,-0.77
2023-02-06T21:31:38.346Z,-0.58
2023-02-06T21:34:09.985Z,-0.57
2023-02-06T21:36:39.477Z,-0.47
2023-02-06T21:39:07.761Z,-0.48
2023-02-06T21:41:36.469Z,-0.61
2023-02-06T21:44:03.644Z,-0.51
2023-02-06T21:46:31.072Z,-0.42
2023-02-06T21:48:57.939Z,-0.66
2023-02-06T21:51:24.841Z,-0.62
2023-02-06T21:53:51.905Z,-0.84
2023-02-06T21:56:25.954Z,-0.72
2023-02-06T21:58:53.217Z,-0.89
2023-02-06T22:01:27.845Z,-0.78
2023-02-06T22:03:56.910Z,-0.98
2023-02-06T22:06:24.023Z,-0.98
2023-02-06T22:08:54.364Z,-1.02
2023-02-06T22:11:29.823Z,-1.06
2023-02-06T22:14:02.982Z,-1.46
2023-02-06T22:16:30.161Z,-1.48
2023-02-06T22:18:57.112Z,-1.45
2023-02-06T22:21:27.454Z,-1.45
2023-02-06T22:23:58.497Z,-1.23
2023-02-06T22:26:26.462Z,-1.29
2023-02-06T22:28:53.361Z,-1.28
2023-02-06T22:31:24.652Z,-1.44
2023-02-06T22:33:53.163Z,-1.36
2023-02-06T22:36:24.895Z,-1.58
2023-02-06T22:39:06.601Z,-1.63
2023-02-06T22:41:35.582Z,-1.88
2023-02-06T22:44:02.577Z,-1.97
2023-02-06T22:46:37.207Z,-1.74
2023-02-06T22:49:09.709Z,-1.78
2023-02-06T22:51:38.507Z,-2.03
2023-02-06T22:54:06.087Z,-1.97
2023-02-06T22:56:43.567Z,-2.04
2023-02-06T22:59:22.972Z,-2.09
2023-02-06T23:01:50.605Z,-2.10
2023-02-06T23:04:34.736Z,-2.13
2023-02-06T23:07:02.188Z,-2.11
2023-02-06T23:09:33.470Z,-2.13
2023-02-06T23:12:02.136Z,-2.09
2023-02-06T23:14:31.612Z,-2.02
2023-02-06T23:17:01.242Z,-2.14
2023-02-06T23:19:29.217Z,-2.20
2023-02-06T23:21:56.086Z,-2.18
2023-02-06T23:24:22.888Z,-2.10
2023-02-06T23:26:51.386Z,-2.16
2023-02-06T23:29:19.728Z,-1.93
2023-02-06T23:31:47.540Z,-2.08
2023-02-06T23:34:15.943Z,-2.03
2023-02-06T23:36:43.303Z,-1.94
2023-02-06T23:39:11.860Z,-1.97
2023-02-06T23:41:38.960Z,-2.35
2023-02-06T23:44:07.536Z,-2.36
2023-02-06T23:46:36.982Z,-2.35
2023-02-06T23:49:05.590Z,-2.48
2023-02-06T23:51:33.035Z,-2.38
2023-02-06T23:53:59.993Z,-2.30
2023-02-06T23:56:30.108Z,-2.30
2023-02-06T23:58:59.679Z,-2.25
